sensor_id;sensor_type;location;lat;lon;timestamp;temperature;humidity
37002;DHT22;22913;51.910;8.374;2023-01-01T00:02:41;16.80;99.90
37002;DHT22;22913;51.910;8.374;2023-01-01T00:05:27;16.80;99.90
37002;DHT22;22913;51.910;8.374;2023-01-01T00:08:13;16.80;99.90
37002;DHT22;22913;51.910;8.374;2023-01-01T00:11:00;16.90;99.90
37002;DHT22;22913;51.910;8.374;2023-01-01T00:13:49;16.90;99.90
37002;DHT22;22913;51.910;8.374;2023-01-01T00:16:34;16.90;99.90
37002;DHT22;22913;51.910;8.374;2023-01-01T00:19:20;16.90;99.90
37002;DHT22;22913;51.910;8.374;2023-01-01T00:22:06;16.90;99.90
37002;DHT22;22913;51.910;8.374;2023-01-01T00:24:51;16.90;99.90
37002;DHT22;22913;51.910;8.374;2023-01-01T00:27:37;16.90;99.90
37002;DHT22;22913;51.910;8.374;2023-01-01T00:30:24;17.00;99.90
37002;DHT22;22913;51.910;8.374;2023-01-01T00:33:10;16.90;99.90
37002;DHT22;22913;51.910;8.374;2023-01-01T00:35:55;16.90;99.90
37002;DHT22;22913;51.910;8.374;2023-01-01T00:38:43;16.90;99.90
37002;DHT22;22913;51.910;8.374;2023-01-01T00:41:29;17.00;99.90
37002;DHT22;22913;51.910;8.374;2023-01-01T00:44:14;17.00;99.90
37002;DHT22;22913;51.910;8.374;2023-01-01T00:47:01;17.00;99.90
37002;DHT22;22913;51.910;8.374;2023-01-01T00:49:47;17.00;99.90
37002;DHT22;22913;51.910;8.374;2023-01-01T00:52:33;17.00;99.90
37002;DHT22;22913;51.910;8.374;2023-01-01T00:55:19;17.00;99.90
37002;DHT22;22913;51.910;8.374;2023-01-01T00:58:04;17.00;99.90
37002;DHT22;22913;51.910;8.374;2023-01-01T01:00:51;16.90;99.90
37002;DHT22;22913;51.910;8.374;2023-01-01T01:03:38;17.00;99.90
37002;DHT22;22913;51.910;8.374;2023-01-01T01:06:24;17.00;99.90
37002;DHT22;22913;51.910;8.374;2023-01-01T01:09:10;16.90;99.90
37002;DHT22;22913;51.910;8.374;2023-01-01T01:11:56;16.90;99.90
37002;DHT22;22913;51.910;8.374;2023-01-01T01:14:42;16.90;99.90
37002;DHT22;22913;51.910;8.374;2023-01-01T01:17:28;16.90;99.90
37002;DHT22;22913;51.910;8.374;2023-01-01T01:20:15;16.90;99.90
37002;DHT22;22913;51.910;8.374;2023-01-01T01:23:01;16.90;99.90
37002;DHT22;22913;51.910;8.374;2023-01-01T01:25:47;16.80;99.90
37002;DHT22;22913;51.910;8.374;2023-01-01T01:28:33;16.80;99.90
37002;DHT22;22913;51.910;8.374;2023-01-01T01:31:20;16.80;99.90
37002;DHT22;22913;51.910;8.374;2023-01-01T01:34:06;16.80;99.90
37002;DHT22;22913;51.910;8.374;2023-01-01T01:36:54;16.80;99.90
37002;DHT22;22913;51.910;8.374;2023-01-01T01:39:39;16.80;99.90
37002;DHT22;22913;51.910;8.374;2023-01-01T01:42:26;16.80;99.90
37002;DHT22;22913;51.910;8.374;2023-01-01T01:45:12;16.80;99.90
37002;DHT22;22913;51.910;8.374;2023-01-01T01:47:58;16.70;99.90
37002;DHT22;22913;51.910;8.374;2023-01-01T01:50:46;16.70;99.90
37002;DHT22;22913;51.910;8.374;2023-01-01T01:53:37;16.70;99.90
37002;DHT22;22913;51.910;8.374;2023-01-01T01:56:28;16.70;99.90
37002;DHT22;22913;51.910;8.374;2023-01-01T01:59:16;16.70;99.90
37002;DHT22;22913;51.910;8.374;2023-01-01T02:02:05;16.70;99.90
37002;DHT22;22913;51.910;8.374;2023-01-01T02:04:54;16.70;99.90
37002;DHT22;22913;51.910;8.374;2023-01-01T02:07:40;16.70;99.90
37002;DHT22;22913;51.910;8.374;2023-01-01T02:10:28;16.60;99.90
37002;DHT22;22913;51.910;8.374;2023-01-01T02:13:15;16.70;99.90
37002;DHT22;22913;51.910;8.374;2023-01-01T02:16:05;16.70;99.90
37002;DHT22;22913;51.910;8.374;2023-01-01T02:18:59;16.60;99.90
37002;DHT22;22913;51.910;8.374;2023-01-01T02:21:57;16.60;99.90
37002;DHT22;22913;51.910;8.374;2023-01-01T02:24:58;16.60;99.90
37002;DHT22;22913;51.910;8.374;2023-01-01T02:27:53;16.70;99.90
37002;DHT22;22913;51.910;8.374;2023-01-01T02:30:45;16.60;99.90
37002;DHT22;22913;51.910;8.374;2023-01-01T02:33:33;16.60;99.90
37002;DHT22;22913;51.910;8.374;2023-01-01T02:36:19;16.70;99.90
37002;DHT22;22913;51.910;8.374;2023-01-01T02:39:07;16.70;99.90
37002;DHT22;22913;51.910;8.374;2023-01-01T02:41:55;16.60;99.90
37002;DHT22;22913;51.910;8.374;2023-01-01T02:44:44;16.60;99.90
37002;DHT22;22913;51.910;8.374;2023-01-01T02:47:34;16.60;99.90
37002;DHT22;22913;51.910;8.374;2023-01-01T02:50:24;16.60;99.90
37002;DHT22;22913;51.910;8.374;2023-01-01T02:53:20;16.60;99.90
37002;DHT22;22913;51.910;8.374;2023-01-01T02:56:10;16.50;99.90
37002;DHT22;22913;51.910;8.374;2023-01-01T02:59:06;16.50;99.90
37002;DHT22;22913;51.910;8.374;2023-01-01T03:02:22;16.40;99.90
37002;DHT22;22913;51.910;8.374;2023-01-01T03:05:18;16.40;99.90
37002;DHT22;22913;51.910;8.374;2023-01-01T03:08:11;16.40;99.90
37002;DHT22;22913;51.910;8.374;2023-01-01T03:11:02;16.30;99.90
37002;DHT22;22913;51.910;8.374;2023-01-01T03:13:54;16.30;99.90
37002;DHT22;22913;51.910;8.374;2023-01-01T03:16:48;16.30;99.90
37002;DHT22;22913;51.910;8.374;2023-01-01T03:19:37;16.30;99.90
37002;DHT22;22913;51.910;8.374;2023-01-01T03:22:28;16.30;99.90
37002;DHT22;22913;51.910;8.374;2023-01-01T03:25:19;16.30;99.90
37002;DHT22;22913;51.910;8.374;2023-01-01T03:28:09;16.30;99.90
37002;DHT22;22913;51.910;8.374;2023-01-01T03:30:56;16.20;99.90
37002;DHT22;22913;51.910;8.374;2023-01-01T03:33:47;16.20;99.90
37002;DHT22;22913;51.910;8.374;2023-01-01T03:36:36;16.30;99.90
37002;DHT22;22913;51.910;8.374;2023-01-01T03:39:28;16.30;99.90
37002;DHT22;22913;51.910;8.374;2023-01-01T03:42:20;16.30;99.90
37002;DHT22;22913;51.910;8.374;2023-01-01T03:45:09;16.20;99.90
37002;DHT22;22913;51.910;8.374;2023-01-01T03:47:59;16.20;99.90
37002;DHT22;22913;51.910;8.374;2023-01-01T03:50:52;16.20;99.90
37002;DHT22;22913;51.910;8.374;2023-01-01T03:53:42;16.20;99.90
37002;DHT22;22913;51.910;8.374;2023-01-01T03:56:35;16.20;99.90
37002;DHT22;22913;51.910;8.374;2023-01-01T03:59:25;16.20;99.90
37002;DHT22;22913;51.910;8.374;2023-01-01T04:02:17;16.20;99.90
37002;DHT22;22913;51.910;8.374;2023-01-01T04:05:05;16.20;99.90
37002;DHT22;22913;51.910;8.374;2023-01-01T04:07:51;16.20;99.90
37002;DHT22;22913;51.910;8.374;2023-01-01T04:10:41;16.10;99.90
37002;DHT22;22913;51.910;8.374;2023-01-01T04:13:29;16.10;99.90
37002;DHT22;22913;51.910;8.374;2023-01-01T04:16:15;16.10;99.90
37002;DHT22;22913;51.910;8.374;2023-01-01T04:19:01;16.10;99.90
37002;DHT22;22913;51.910;8.374;2023-01-01T04:21:50;16.10;99.90
37002;DHT22;22913;51.910;8.374;2023-01-01T04:24:36;16.10;99.90
37002;DHT22;22913;51.910;8.374;2023-01-01T04:27:22;16.10;99.90
37002;DHT22;22913;51.910;8.374;2023-01-01T04:30:13;16.00;99.90
37002;DHT22;22913;51.910;8.374;2023-01-01T04:32:59;16.00;99.90
37002;DHT22;22913;51.910;8.374;2023-01-01T04:35:45;16.00;99.90
37002;DHT22;22913;51.910;8.374;2023-01-01T04:38:33;16.00;99.90
37002;DHT22;22913;51.910;8.374;2023-01-01T04:41:19;16.00;99.90
37002;DHT22;22913;51.910;8.374;2023-01-01T04:44:05;15.90;99.90
37002;DHT22;22913;51.910;8.374;2023-01-01T04:46:52;16.00;99.90
37002;DHT22;22913;51.910;8.374;2023-01-01T04:49:37;15.90;99.90
37002;DHT22;22913;51.910;8.374;2023-01-01T04:52:24;15.90;99.90
37002;DHT22;22913;51.910;8.374;2023-01-01T04:55:10;16.00;99.90
37002;DHT22;22913;51.910;8.374;2023-01-01T04:57:55;15.90;99.90
37002;DHT22;22913;51.910;8.374;2023-01-01T05:00:42;15.90;99.90
37002;DHT22;22913;51.910;8.374;2023-01-01T05:03:29;15.90;99.90
37002;DHT22;22913;51.910;8.374;2023-01-01T05:06:15;15.90;99.90
37002;DHT22;22913;51.910;8.374;2023-01-01T05:09:01;15.90;99.90
37002;DHT22;22913;51.910;8.374;2023-01-01T05:11:47;15.80;99.90
37002;DHT22;22913;51.910;8.374;2023-01-01T05:14:33;15.80;99.90
37002;DHT22;22913;51.910;8.374;2023-01-01T05:17:19;15.80;99.90
37002;DHT22;22913;51.910;8.374;2023-01-01T05:20:07;15.80;99.90
37002;DHT22;22913;51.910;8.374;2023-01-01T05:22:53;15.80;99.90
37002;DHT22;22913;51.910;8.374;2023-01-01T05:25:39;15.80;99.90
37002;DHT22;22913;51.910;8.374;2023-01-01T05:28:24;15.80;99.90
37002;DHT22;22913;51.910;8.374;2023-01-01T05:31:12;15.80;99.90
37002;DHT22;22913;51.910;8.374;2023-01-01T05:33:59;15.80;99.90
37002;DHT22;22913;51.910;8.374;2023-01-01T05:36:47;15.90;99.90
37002;DHT22;22913;51.910;8.374;2023-01-01T05:39:32;15.80;99.90
37002;DHT22;22913;51.910;8.374;2023-01-01T05:42:18;15.80;99.90
37002;DHT22;22913;51.910;8.374;2023-01-01T05:45:05;15.80;99.90
37002;DHT22;22913;51.910;8.374;2023-01-01T05:47:51;15.80;99.90
37002;DHT22;22913;51.910;8.374;2023-01-01T05:50:37;15.80;99.90
37002;DHT22;22913;51.910;8.374;2023-01-01T05:53:24;15.80;99.90
37002;DHT22;22913;51.910;8.374;2023-01-01T05:56:10;15.80;99.90
37002;DHT22;22913;51.910;8.374;2023-01-01T05:58:56;15.70;99.90
37002;DHT22;22913;51.910;8.374;2023-01-01T06:01:42;15.70;99.90
37002;DHT22;22913;51.910;8.374;2023-01-01T06:04:28;15.70;99.90
37002;DHT22;22913;51.910;8.374;2023-01-01T06:07:14;15.60;99.90
37002;DHT22;22913;51.910;8.374;2023-01-01T06:10:01;15.70;99.90
37002;DHT22;22913;51.910;8.374;2023-01-01T06:12:47;15.60;99.90
37002;DHT22;22913;51.910;8.374;2023-01-01T06:15:33;15.60;99.90
37002;DHT22;22913;51.910;8.374;2023-01-01T06:18:18;15.50;99.90
37002;DHT22;22913;51.910;8.374;2023-01-01T06:21:05;15.50;99.90
37002;DHT22;22913;51.910;8.374;2023-01-01T06:23:53;15.50;99.90
37002;DHT22;22913;51.910;8.374;2023-01-01T06:26:41;15.50;99.90
37002;DHT22;22913;51.910;8.374;2023-01-01T06:29:27;15.50;99.90
37002;DHT22;22913;51.910;8.374;2023-01-01T06:32:13;15.50;99.90
37002;DHT22;22913;51.910;8.374;2023-01-01T06:34:59;15.40;99.90
37002;DHT22;22913;51.910;8.374;2023-01-01T06:37:44;15.30;99.90
37002;DHT22;22913;51.910;8.374;2023-01-01T06:40:30;15.30;99.90
37002;DHT22;22913;51.910;8.374;2023-01-01T06:43:17;15.30;99.90
37002;DHT22;22913;51.910;8.374;2023-01-01T06:46:05;15.30;99.90
37002;DHT22;22913;51.910;8.374;2023-01-01T06:48:53;15.30;99.90
37002;DHT22;22913;51.910;8.374;2023-01-01T06:51:40;15.30;99.90
37002;DHT22;22913;51.910;8.374;2023-01-01T06:54:27;15.40;99.90
37002;DHT22;22913;51.910;8.374;2023-01-01T06:57:12;15.30;99.90
37002;DHT22;22913;51.910;8.374;2023-01-01T07:00:00;15.30;99.90
37002;DHT22;22913;51.910;8.374;2023-01-01T07:02:47;15.30;99.90
37002;DHT22;22913;51.910;8.374;2023-01-01T07:05:32;15.20;99.90
37002;DHT22;22913;51.910;8.374;2023-01-01T07:08:18;15.20;99.90
37002;DHT22;22913;51.910;8.374;2023-01-01T07:11:04;15.30;99.90
37002;DHT22;22913;51.910;8.374;2023-01-01T07:13:50;15.30;99.90
37002;DHT22;22913;51.910;8.374;2023-01-01T07:16:37;15.30;99.90
37002;DHT22;22913;51.910;8.374;2023-01-01T07:19:22;15.30;99.90
37002;DHT22;22913;51.910;8.374;2023-01-01T07:22:09;15.30;99.90
37002;DHT22;22913;51.910;8.374;2023-01-01T07:24:55;15.40;99.90
37002;DHT22;22913;51.910;8.374;2023-01-01T07:27:40;15.40;99.90
37002;DHT22;22913;51.910;8.374;2023-01-01T07:30:26;15.40;99.90
37002;DHT22;22913;51.910;8.374;2023-01-01T07:33:14;15.40;99.90
37002;DHT22;22913;51.910;8.374;2023-01-01T07:36:00;15.40;99.90
37002;DHT22;22913;51.910;8.374;2023-01-01T07:38:46;15.40;99.90
37002;DHT22;22913;51.910;8.374;2023-01-01T07:41:31;15.30;99.90
37002;DHT22;22913;51.910;8.374;2023-01-01T07:44:17;15.40;99.90
37002;DHT22;22913;51.910;8.374;2023-01-01T07:47:03;15.30;99.90
37002;DHT22;22913;51.910;8.374;2023-01-01T07:49:51;15.30;99.90
37002;DHT22;22913;51.910;8.374;2023-01-01T07:52:37;15.30;99.90
37002;DHT22;22913;51.910;8.374;2023-01-01T07:55:23;15.30;99.90
37002;DHT22;22913;51.910;8.374;2023-01-01T07:58:11;15.30;99.90
37002;DHT22;22913;51.910;8.374;2023-01-01T08:00:57;15.20;99.90
37002;DHT22;22913;51.910;8.374;2023-01-01T08:03:43;15.20;99.90
37002;DHT22;22913;51.910;8.374;2023-01-01T08:06:30;15.20;99.90
37002;DHT22;22913;51.910;8.374;2023-01-01T08:09:16;15.20;99.90
37002;DHT22;22913;51.910;8.374;2023-01-01T08:12:03;15.10;99.90
37002;DHT22;22913;51.910;8.374;2023-01-01T08:14:49;15.10;99.90
37002;DHT22;22913;51.910;8.374;2023-01-01T08:17:35;15.00;99.90
37002;DHT22;22913;51.910;8.374;2023-01-01T08:20:21;15.00;99.90
37002;DHT22;22913;51.910;8.374;2023-01-01T08:23:10;15.00;99.90
37002;DHT22;22913;51.910;8.374;2023-01-01T08:25:58;14.90;99.90
37002;DHT22;22913;51.910;8.374;2023-01-01T08:28:44;14.90;99.90
37002;DHT22;22913;51.910;8.374;2023-01-01T08:31:32;14.90;99.90
37002;DHT22;22913;51.910;8.374;2023-01-01T08:34:18;14.90;99.90
37002;DHT22;22913;51.910;8.374;2023-01-01T08:37:04;14.80;99.90
37002;DHT22;22913;51.910;8.374;2023-01-01T08:39:51;14.80;99.90
37002;DHT22;22913;51.910;8.374;2023-01-01T08:42:37;14.80;99.90
37002;DHT22;22913;51.910;8.374;2023-01-01T08:45:23;14.80;99.90
37002;DHT22;22913;51.910;8.374;2023-01-01T08:48:09;14.70;99.90
37002;DHT22;22913;51.910;8.374;2023-01-01T08:50:57;14.70;99.90
37002;DHT22;22913;51.910;8.374;2023-01-01T08:53:44;14.60;99.90
37002;DHT22;22913;51.910;8.374;2023-01-01T08:56:31;14.60;99.90
37002;DHT22;22913;51.910;8.374;2023-01-01T08:59:17;14.50;99.90
37002;DHT22;22913;51.910;8.374;2023-01-01T09:02:03;14.50;99.90
37002;DHT22;22913;51.910;8.374;2023-01-01T09:04:49;14.40;99.90
37002;DHT22;22913;51.910;8.374;2023-01-01T09:07:35;14.30;99.90
37002;DHT22;22913;51.910;8.374;2023-01-01T09:10:22;14.30;99.90
37002;DHT22;22913;51.910;8.374;2023-01-01T09:13:09;14.40;99.90
37002;DHT22;22913;51.910;8.374;2023-01-01T09:15:55;14.40;99.90
37002;DHT22;22913;51.910;8.374;2023-01-01T09:18:40;14.30;99.90
37002;DHT22;22913;51.910;8.374;2023-01-01T09:21:26;14.30;99.90
37002;DHT22;22913;51.910;8.374;2023-01-01T09:24:12;14.30;99.90
37002;DHT22;22913;51.910;8.374;2023-01-01T09:26:58;14.20;99.90
37002;DHT22;22913;51.910;8.374;2023-01-01T09:29:46;14.20;99.90
37002;DHT22;22913;51.910;8.374;2023-01-01T09:32:31;14.10;99.90
37002;DHT22;22913;51.910;8.374;2023-01-01T09:35:17;14.10;99.90
37002;DHT22;22913;51.910;8.374;2023-01-01T09:38:03;14.00;99.90
37002;DHT22;22913;51.910;8.374;2023-01-01T09:40:54;14.00;99.90
37002;DHT22;22913;51.910;8.374;2023-01-01T09:43:52;13.90;99.90
37002;DHT22;22913;51.910;8.374;2023-01-01T09:46:44;13.90;99.90
37002;DHT22;22913;51.910;8.374;2023-01-01T09:49:33;13.90;99.90
37002;DHT22;22913;51.910;8.374;2023-01-01T09:52:19;14.00;99.90
37002;DHT22;22913;51.910;8.374;2023-01-01T09:55:13;13.90;99.90
37002;DHT22;22913;51.910;8.374;2023-01-01T09:58:01;13.90;99.90
37002;DHT22;22913;51.910;8.374;2023-01-01T10:00:50;14.00;99.90
37002;DHT22;22913;51.910;8.374;2023-01-01T10:03:41;13.80;99.90
37002;DHT22;22913;51.910;8.374;2023-01-01T10:06:31;13.70;99.90
37002;DHT22;22913;51.910;8.374;2023-01-01T10:09:22;13.40;99.90
37002;DHT22;22913;51.910;8.374;2023-01-01T10:12:15;13.30;99.90
37002;DHT22;22913;51.910;8.374;2023-01-01T10:15:12;13.20;99.90
37002;DHT22;22913;51.910;8.374;2023-01-01T10:18:03;13.10;99.90
37002;DHT22;22913;51.910;8.374;2023-01-01T10:20:57;13.10;99.90
37002;DHT22;22913;51.910;8.374;2023-01-01T10:23:47;13.10;99.90
37002;DHT22;22913;51.910;8.374;2023-01-01T10:26:36;13.10;99.90
37002;DHT22;22913;51.910;8.374;2023-01-01T10:29:34;13.10;99.90
37002;DHT22;22913;51.910;8.374;2023-01-01T10:32:26;13.10;99.90
37002;DHT22;22913;51.910;8.374;2023-01-01T10:35:14;13.10;99.90
37002;DHT22;22913;51.910;8.374;2023-01-01T10:38:03;13.10;99.90
37002;DHT22;22913;51.910;8.374;2023-01-01T10:40:49;13.10;99.90
37002;DHT22;22913;51.910;8.374;2023-01-01T10:43:36;13.10;99.90
37002;DHT22;22913;51.910;8.374;2023-01-01T10:46:23;13.10;99.90
37002;DHT22;22913;51.910;8.374;2023-01-01T10:49:10;13.10;99.90
37002;DHT22;22913;51.910;8.374;2023-01-01T10:51:56;13.20;99.90
37002;DHT22;22913;51.910;8.374;2023-01-01T10:54:43;13.20;99.90
37002;DHT22;22913;51.910;8.374;2023-01-01T10:57:32;13.30;99.90
37002;DHT22;22913;51.910;8.374;2023-01-01T11:00:21;13.30;99.90
37002;DHT22;22913;51.910;8.374;2023-01-01T11:03:15;13.40;99.90
37002;DHT22;22913;51.910;8.374;2023-01-01T11:06:13;13.40;99.90
37002;DHT22;22913;51.910;8.374;2023-01-01T11:09:03;13.30;99.90
37002;DHT22;22913;51.910;8.374;2023-01-01T11:11:56;13.30;99.90
37002;DHT22;22913;51.910;8.374;2023-01-01T11:14:47;13.20;99.90
37002;DHT22;22913;51.910;8.374;2023-01-01T11:17:35;13.20;99.90
37002;DHT22;22913;51.910;8.374;2023-01-01T11:20:20;13.30;99.90
37002;DHT22;22913;51.910;8.374;2023-01-01T11:23:18;13.30;99.90
37002;DHT22;22913;51.910;8.374;2023-01-01T11:26:06;13.40;99.90
37002;DHT22;22913;51.910;8.374;2023-01-01T11:29:03;13.40;99.90
37002;DHT22;22913;51.910;8.374;2023-01-01T11:31:50;13.40;99.90
37002;DHT22;22913;51.910;8.374;2023-01-01T11:34:38;13.40;99.90
37002;DHT22;22913;51.910;8.374;2023-01-01T11:37:26;13.40;99.90
37002;DHT22;22913;51.910;8.374;2023-01-01T11:40:16;13.40;99.90
37002;DHT22;22913;51.910;8.374;2023-01-01T11:43:05;13.40;99.90
37002;DHT22;22913;51.910;8.374;2023-01-01T11:45:53;13.40;99.90
37002;DHT22;22913;51.910;8.374;2023-01-01T11:48:41;13.50;99.90
37002;DHT22;22913;51.910;8.374;2023-01-01T11:51:29;13.50;99.90
37002;DHT22;22913;51.910;8.374;2023-01-01T11:54:29;13.50;99.90
37002;DHT22;22913;51.910;8.374;2023-01-01T11:57:20;13.50;99.90
37002;DHT22;22913;51.910;8.374;2023-01-01T12:00:12;13.50;99.90
37002;DHT22;22913;51.910;8.374;2023-01-01T12:03:03;13.50;99.90
37002;DHT22;22913;51.910;8.374;2023-01-01T12:05:53;13.50;99.90
37002;DHT22;22913;51.910;8.374;2023-01-01T12:08:45;13.50;99.90
37002;DHT22;22913;51.910;8.374;2023-01-01T12:11:35;13.50;99.90
37002;DHT22;22913;51.910;8.374;2023-01-01T12:14:25;13.50;99.90
37002;DHT22;22913;51.910;8.374;2023-01-01T12:17:17;13.50;99.90
37002;DHT22;22913;51.910;8.374;2023-01-01T12:20:10;13.60;99.90
37002;DHT22;22913;51.910;8.374;2023-01-01T12:22:58;13.50;99.90
37002;DHT22;22913;51.910;8.374;2023-01-01T12:25:49;13.60;99.90
37002;DHT22;22913;51.910;8.374;2023-01-01T12:28:42;13.60;99.90
37002;DHT22;22913;51.910;8.374;2023-01-01T12:31:36;13.60;99.90
37002;DHT22;22913;51.910;8.374;2023-01-01T12:34:28;13.70;99.90
37002;DHT22;22913;51.910;8.374;2023-01-01T12:37:22;13.70;99.90
37002;DHT22;22913;51.910;8.374;2023-01-01T12:40:39;13.70;99.90
37002;DHT22;22913;51.910;8.374;2023-01-01T12:43:31;13.80;99.90
37002;DHT22;22913;51.910;8.374;2023-01-01T12:49:35;14.10;99.90
37002;DHT22;22913;51.910;8.374;2023-01-01T12:52:34;14.20;99.90
37002;DHT22;22913;51.910;8.374;2023-01-01T12:55:40;14.40;99.90
37002;DHT22;22913;51.910;8.374;2023-01-01T12:58:33;14.50;99.90
37002;DHT22;22913;51.910;8.374;2023-01-01T13:01:21;14.60;99.90
37002;DHT22;22913;51.910;8.374;2023-01-01T13:04:11;14.70;99.90
37002;DHT22;22913;51.910;8.374;2023-01-01T13:07:00;14.80;99.90
37002;DHT22;22913;51.910;8.374;2023-01-01T13:09:50;14.90;99.90
37002;DHT22;22913;51.910;8.374;2023-01-01T13:12:36;14.90;99.90
37002;DHT22;22913;51.910;8.374;2023-01-01T13:15:43;14.90;99.90
37002;DHT22;22913;51.910;8.374;2023-01-01T13:18:32;14.90;99.90
37002;DHT22;22913;51.910;8.374;2023-01-01T13:21:21;14.90;99.90
37002;DHT22;22913;51.910;8.374;2023-01-01T13:24:19;14.90;99.90
37002;DHT22;22913;51.910;8.374;2023-01-01T13:27:08;15.10;99.90
37002;DHT22;22913;51.910;8.374;2023-01-01T13:29:54;15.10;99.90
37002;DHT22;22913;51.910;8.374;2023-01-01T13:33:09;15.10;99.90
37002;DHT22;22913;51.910;8.374;2023-01-01T13:36:31;15.10;99.90
37002;DHT22;22913;51.910;8.374;2023-01-01T13:39:50;15.10;99.90
37002;DHT22;22913;51.910;8.374;2023-01-01T13:42:45;15.00;99.90
37002;DHT22;22913;51.910;8.374;2023-01-01T13:45:37;15.00;99.90
37002;DHT22;22913;51.910;8.374;2023-01-01T13:48:50;14.90;99.90
37002;DHT22;22913;51.910;8.374;2023-01-01T13:52:04;14.90;99.90
37002;DHT22;22913;51.910;8.374;2023-01-01T13:55:24;14.90;99.90
37002;DHT22;22913;51.910;8.374;2023-01-01T14:01:47;14.90;99.90
37002;DHT22;22913;51.910;8.374;2023-01-01T14:04:38;14.90;99.90
37002;DHT22;22913;51.910;8.374;2023-01-01T14:07:38;14.80;99.90
37002;DHT22;22913;51.910;8.374;2023-01-01T14:10:27;14.80;99.90
37002;DHT22;22913;51.910;8.374;2023-01-01T14:13:16;14.70;99.90
37002;DHT22;22913;51.910;8.374;2023-01-01T14:16:03;14.70;99.90
37002;DHT22;22913;51.910;8.374;2023-01-01T14:18:56;14.70;99.90
37002;DHT22;22913;51.910;8.374;2023-01-01T14:21:44;14.70;99.90
37002;DHT22;22913;51.910;8.374;2023-01-01T14:24:29;14.70;99.90
37002;DHT22;22913;51.910;8.374;2023-01-01T14:27:19;14.70;99.90
37002;DHT22;22913;51.910;8.374;2023-01-01T14:30:06;14.60;99.90
37002;DHT22;22913;51.910;8.374;2023-01-01T14:32:55;14.60;99.90
37002;DHT22;22913;51.910;8.374;2023-01-01T14:35:51;14.60;99.90
37002;DHT22;22913;51.910;8.374;2023-01-01T14:38:42;14.50;99.90
37002;DHT22;22913;51.910;8.374;2023-01-01T14:41:30;14.50;99.90
37002;DHT22;22913;51.910;8.374;2023-01-01T14:44:19;14.50;99.90
37002;DHT22;22913;51.910;8.374;2023-01-01T14:47:24;14.50;99.90
37002;DHT22;22913;51.910;8.374;2023-01-01T14:50:14;14.60;99.90
37002;DHT22;22913;51.910;8.374;2023-01-01T14:53:04;14.50;99.90
37002;DHT22;22913;51.910;8.374;2023-01-01T14:55:51;14.40;99.90
37002;DHT22;22913;51.910;8.374;2023-01-01T14:58:39;14.40;99.90
37002;DHT22;22913;51.910;8.374;2023-01-01T15:01:25;14.40;99.90
37002;DHT22;22913;51.910;8.374;2023-01-01T15:04:18;14.40;99.90
37002;DHT22;22913;51.910;8.374;2023-01-01T15:07:04;14.30;99.90
37002;DHT22;22913;51.910;8.374;2023-01-01T15:09:53;14.30;99.90
37002;DHT22;22913;51.910;8.374;2023-01-01T15:12:40;14.30;99.90
37002;DHT22;22913;51.910;8.374;2023-01-01T15:15:40;14.30;99.90
37002;DHT22;22913;51.910;8.374;2023-01-01T15:18:38;14.30;99.90
37002;DHT22;22913;51.910;8.374;2023-01-01T15:21:33;14.30;99.90
37002;DHT22;22913;51.910;8.374;2023-01-01T15:24:20;14.30;99.90
37002;DHT22;22913;51.910;8.374;2023-01-01T15:27:23;14.30;99.90
37002;DHT22;22913;51.910;8.374;2023-01-01T15:30:22;14.30;99.90
37002;DHT22;22913;51.910;8.374;2023-01-01T15:33:14;14.30;99.90
37002;DHT22;22913;51.910;8.374;2023-01-01T15:36:00;14.20;99.90
37002;DHT22;22913;51.910;8.374;2023-01-01T15:38:47;14.10;99.90
37002;DHT22;22913;51.910;8.374;2023-01-01T15:41:41;14.20;99.90
37002;DHT22;22913;51.910;8.374;2023-01-01T15:44:31;14.10;99.90
37002;DHT22;22913;51.910;8.374;2023-01-01T15:47:16;14.10;99.90
37002;DHT22;22913;51.910;8.374;2023-01-01T15:50:09;14.10;99.90
37002;DHT22;22913;51.910;8.374;2023-01-01T15:52:57;14.00;99.90
37002;DHT22;22913;51.910;8.374;2023-01-01T15:55:49;14.00;99.90
37002;DHT22;22913;51.910;8.374;2023-01-01T15:58:40;14.00;99.90
37002;DHT22;22913;51.910;8.374;2023-01-01T16:01:30;14.00;99.90
37002;DHT22;22913;51.910;8.374;2023-01-01T16:04:19;14.00;99.90
37002;DHT22;22913;51.910;8.374;2023-01-01T16:07:14;14.00;99.90
37002;DHT22;22913;51.910;8.374;2023-01-01T16:10:02;14.00;99.90
37002;DHT22;22913;51.910;8.374;2023-01-01T16:12:47;13.90;99.90
37002;DHT22;22913;51.910;8.374;2023-01-01T16:15:33;13.90;99.90
37002;DHT22;22913;51.910;8.374;2023-01-01T16:18:25;13.90;99.90
37002;DHT22;22913;51.910;8.374;2023-01-01T16:21:12;13.90;99.90
37002;DHT22;22913;51.910;8.374;2023-01-01T16:23:58;13.80;99.90
37002;DHT22;22913;51.910;8.374;2023-01-01T16:26:44;13.90;99.90
37002;DHT22;22913;51.910;8.374;2023-01-01T16:29:30;13.80;99.90
37002;DHT22;22913;51.910;8.374;2023-01-01T16:32:16;13.80;99.90
37002;DHT22;22913;51.910;8.374;2023-01-01T16:35:05;13.80;99.90
37002;DHT22;22913;51.910;8.374;2023-01-01T16:37:51;13.80;99.90
37002;DHT22;22913;51.910;8.374;2023-01-01T16:40:37;13.80;99.90
37002;DHT22;22913;51.910;8.374;2023-01-01T16:43:22;13.80;99.90
37002;DHT22;22913;51.910;8.374;2023-01-01T16:46:08;13.80;99.90
37002;DHT22;22913;51.910;8.374;2023-01-01T16:48:54;13.80;99.90
37002;DHT22;22913;51.910;8.374;2023-01-01T16:51:41;13.70;99.90
37002;DHT22;22913;51.910;8.374;2023-01-01T16:54:26;13.60;99.90
37002;DHT22;22913;51.910;8.374;2023-01-01T16:57:12;13.60;99.90
37002;DHT22;22913;51.910;8.374;2023-01-01T16:59:58;13.50;99.90
37002;DHT22;22913;51.910;8.374;2023-01-01T17:02:43;13.50;99.90
37002;DHT22;22913;51.910;8.374;2023-01-01T17:05:29;13.50;99.90
37002;DHT22;22913;51.910;8.374;2023-01-01T17:08:16;13.50;99.90
37002;DHT22;22913;51.910;8.374;2023-01-01T17:11:03;13.60;99.90
37002;DHT22;22913;51.910;8.374;2023-01-01T17:13:49;13.60;99.90
37002;DHT22;22913;51.910;8.374;2023-01-01T17:16:34;13.60;99.90
37002;DHT22;22913;51.910;8.374;2023-01-01T17:19:20;13.60;99.90
37002;DHT22;22913;51.910;8.374;2023-01-01T17:22:06;13.60;99.90
37002;DHT22;22913;51.910;8.374;2023-01-01T17:24:53;13.60;99.90
37002;DHT22;22913;51.910;8.374;2023-01-01T17:27:38;13.60;99.90
37002;DHT22;22913;51.910;8.374;2023-01-01T17:30:24;13.50;99.90
37002;DHT22;22913;51.910;8.374;2023-01-01T17:33:09;13.50;99.90
37002;DHT22;22913;51.910;8.374;2023-01-01T17:35:55;13.50;99.90
37002;DHT22;22913;51.910;8.374;2023-01-01T17:38:41;13.40;99.90
37002;DHT22;22913;51.910;8.374;2023-01-01T17:41:28;13.40;99.90
37002;DHT22;22913;51.910;8.374;2023-01-01T17:44:14;13.40;99.90
37002;DHT22;22913;51.910;8.374;2023-01-01T17:47:00;13.30;99.90
37002;DHT22;22913;51.910;8.374;2023-01-01T17:49:45;13.30;99.90
37002;DHT22;22913;51.910;8.374;2023-01-01T17:52:31;13.20;99.90
37002;DHT22;22913;51.910;8.374;2023-01-01T17:55:17;13.10;99.90